Terminal Aerodrome Forecast
Issued by NWS

Home | Current Version | Previous Version | Text Only | Print | Product List | Glossary Off
Versions: 1 2 3 4 5 6 7 8 9 10 11 12 13 14 15 16 17 18 19 20 21 22 23

722
FTUS43 KTOP 271120
TAFMHK
TAF
KMHK 271120Z 2712/2812 22009KT P6SM SCT025 BKN100
     FM271700 24010KT P6SM VCSH BKN035
     FM280000 26007KT P6SM SCT040 SCT100=

USA.gov is the U.S. government's official web portal to all federal, state and local government web resources and services.